Robertsdale, AL

12:14 AM CDT on September 24, 2014 (GMT -0500)
Pensacola Naval Air Station | Change Station
CLOSE
Current Station
Airport
Location: Pensacola NAS,
Elevation: 30 ft
Nearby Weather Stations

Elev 30 ft 30.36 °N, 87.32 °W | Updated 18 minutes ago

Clear
Clear
72 °F
Feels Like 72 °F
N
10
Wind Variable Wind from NE

Today
High -- | Low -- °F
--% Chance of Precip.
Yesterday
High -- | Low -- °F
Precip. -- in
6:39 AM 6:44 PM
Waning Crescent, 0% visible
Pressure 30.09 in
Visibility 10.0 miles
Clouds Clear
Dew Point 62 °F
Humidity 71%
Rainfall 0.00 in
Snow Depth Not available.
UV 0 out of 12
Pollen 8.90 out of 12
Air Quality Not available.
Flu Activity Not available.
METAR KNPA 240456Z AUTO 05009KT 10SM CLR 22/17 A3009 RMK AO2 SLP190 T02220167

More Conditions Fewer Conditions

Pressure 30.09 in
Visibility 10.0 miles
Clouds Clear
Dew Point 62 °F
Humidity 71%
Rainfall 0.00 in
Snow Depth Not available.
UV 0 out of 12
Pollen 8.90 out of 12
Air Quality Not available.
Flu Activity Not available.
METAR KNPA 240456Z AUTO 05009KT 10SM CLR 22/17 A3009 RMK AO2 SLP190 T02220167

More Conditions Fewer Conditions

10-Day Weather Forecast

Almanac

Astronomy

Sep. 24, 2014 Rise Set
Actual Time 6:39 AM CDT 6:44 PM CDT
Civil Twilight 6:15 AM CDT 7:08 PM CDT
Nautical Twilight 5:47 AM CDT 7:36 PM CDT
Astronomical Twilight 5:19 AM CDT 8:04 PM CDT
Moon 6:57 AM CDT 6:59 PM CDT
Length of Visible Light 12h 52m
Length of Day
12h 04m
Tomorrow will be 1m 50s shorter.
Waning Crescent, 0% of the Moon is Illuminated
Today
Waning Crescent
Sep 24
New
Oct 1
First Quarter
Oct 8
Full
Oct 15
Last Quarter

Today's Extremes

State Highs State Lows

Community

WunderPhotos

Upload Photos

1,755,891 photos uploaded!

WunderBlogs® & News

Nearby

Snow Depth

Station Depth Elevation
No new snow has been reported.

Earthquake Activity

City Distance Mag. Time & Date
No recent earthquake activity has been reported nearby.
Minimum magnitude displayed is 2.5.

Coastal Water Temperatures

Place Temperature
No Stations Reporting

Nearby Weather Stations